createdAt,value
2023-03-03T00:02:03.385Z,80.85
2023-03-03T00:04:31.679Z,77.63
2023-03-03T00:07:00.504Z,85.50
2023-03-03T00:09:28.536Z,85.38
2023-03-03T00:11:58.973Z,88.20
2023-03-03T00:14:30.934Z,91.63
2023-03-03T00:17:04.543Z,94.22
2023-03-03T00:19:39.180Z,95.95
2023-03-03T00:22:18.626Z,91.65
2023-03-03T00:24:47.498Z,89.60
2023-03-03T00:27:24.458Z,86.68
2023-03-03T00:29:56.847Z,93.60
2023-03-03T00:32:28.031Z,65.35
2023-03-03T00:34:57.634Z,102.00
2023-03-03T00:37:31.602Z,86.78
2023-03-03T00:40:14.633Z,115.40
2023-03-03T00:42:43.226Z,82.22
2023-03-03T00:45:27.331Z,82.10
2023-03-03T00:47:57.358Z,101.03
2023-03-03T00:50:34.776Z,120.13
2023-03-03T00:53:05.868Z,108.57
2023-03-03T00:55:35.113Z,123.35
2023-03-03T00:58:03.469Z,113.07
2023-03-03T01:00:37.419Z,101.95
2023-03-03T01:03:11.432Z,110.05
2023-03-03T01:05:39.797Z,110.72
2023-03-03T01:08:08.531Z,90.47
2023-03-03T01:10:41.236Z,94.88
2023-03-03T01:13:10.238Z,102.60
2023-03-03T01:15:40.855Z,116.72
2023-03-03T01:18:10.817Z,114.50
2023-03-03T01:20:39.295Z,123.45
2023-03-03T01:23:07.808Z,123.40
2023-03-03T01:25:36.122Z,109.43
2023-03-03T01:28:04.867Z,102.18
2023-03-03T01:30:33.418Z,111.00
2023-03-03T01:33:01.810Z,122.63
2023-03-03T01:35:31.283Z,96.88
2023-03-03T01:38:00.112Z,105.85
2023-03-03T01:40:31.875Z,131.73
2023-03-03T01:43:01.030Z,133.60
2023-03-03T01:45:31.222Z,132.70
2023-03-03T01:48:03.087Z,113.88
2023-03-03T01:50:42.813Z,110.88
2023-03-03T01:53:16.713Z,129.23
2023-03-03T01:55:46.799Z,123.13
2023-03-03T01:58:18.290Z,109.65
2023-03-03T02:00:51.666Z,116.47
2023-03-03T02:03:23.441Z,106.85
2023-03-03T02:05:56.932Z,108.80
2023-03-03T02:08:31.678Z,122.00
2023-03-03T02:11:00.191Z,107.45
2023-03-03T02:13:28.481Z,151.85
2023-03-03T02:15:59.251Z,154.43
2023-03-03T02:18:28.770Z,151.60
2023-03-03T02:21:05.232Z,134.60
2023-03-03T02:23:39.767Z,161.23
2023-03-03T02:26:14.931Z,180.90
2023-03-03T02:28:44.262Z,188.10
2023-03-03T02:31:17.393Z,168.65
2023-03-03T02:33:47.950Z,137.45
2023-03-03T02:36:18.444Z,100.60
2023-03-03T02:38:52.969Z,111.57
2023-03-03T02:41:30.658Z,228.73
2023-03-03T02:44:02.988Z,139.40
2023-03-03T02:46:35.700Z,183.25
2023-03-03T02:49:04.843Z,109.53
2023-03-03T02:51:33.920Z,185.80
2023-03-03T02:54:02.220Z,139.63
2023-03-03T02:56:34.995Z,256.15
2023-03-03T02:59:03.093Z,144.52
2023-03-03T03:01:37.249Z,166.60
2023-03-03T03:04:11.310Z,136.68
2023-03-03T03:06:44.178Z,163.77
2023-03-03T03:09:14.541Z,148.93
2023-03-03T03:11:45.229Z,171.02
2023-03-03T03:14:16.079Z,113.03
2023-03-03T03:16:45.234Z,166.27
2023-03-03T03:19:13.405Z,124.13
2023-03-03T03:21:42.086Z,116.78
2023-03-03T03:24:11.768Z,141.77
2023-03-03T03:26:46.355Z,124.15
2023-03-03T03:29:15.700Z,105.95
2023-03-03T03:31:45.004Z,100.53
2023-03-03T03:34:13.268Z,118.63
2023-03-03T03:36:41.605Z,96.63
2023-03-03T03:39:10.437Z,129.57
2023-03-03T03:41:43.275Z,113.90
2023-03-03T03:44:13.079Z,88.60
2023-03-03T03:46:41.251Z,107.45
2023-03-03T03:49:09.593Z,107.40
2023-03-03T03:51:41.338Z,174.45
2023-03-03T03:54:11.372Z,173.45
2023-03-03T03:56:40.401Z,126.25
2023-03-03T03:59:09.438Z,95.05
2023-03-03T04:01:40.234Z,91.05
2023-03-03T04:04:08.252Z,112.93
2023-03-03T04:06:36.559Z,85.38
2023-03-03T04:09:06.929Z,99.50
2023-03-03T04:11:35.171Z,103.30
2023-03-03T04:14:05.827Z,111.88
2023-03-03T04:16:35.381Z,122.57
2023-03-03T04:19:05.804Z,132.55
2023-03-03T04:21:36.443Z,86.85
2023-03-03T04:24:04.619Z,112.47
2023-03-03T04:26:33.503Z,104.03
2023-03-03T04:29:04.022Z,105.35
2023-03-03T04:31:32.660Z,149.85
2023-03-03T04:34:01.954Z,191.35
2023-03-03T04:36:32.735Z,109.00
2023-03-03T04:39:01.414Z,121.93
2023-03-03T04:41:29.535Z,123.57
2023-03-03T04:43:57.804Z,206.15
2023-03-03T04:46:26.065Z,185.27
2023-03-03T04:48:55.503Z,134.82
2023-03-03T04:51:24.372Z,119.13
2023-03-03T04:53:54.309Z,157.80
2023-03-03T04:56:23.106Z,84.70
2023-03-03T04:58:51.502Z,128.80
2023-03-03T05:01:19.775Z,110.80
2023-03-03T05:03:48.483Z,75.50
2023-03-03T05:06:18.803Z,123.78
2023-03-03T05:08:47.168Z,72.43
2023-03-03T05:11:16.953Z,144.70
2023-03-03T05:13:46.085Z,137.45
2023-03-03T05:16:15.599Z,120.72
2023-03-03T05:18:43.685Z,152.30
2023-03-03T05:21:12.151Z,199.63
2023-03-03T05:23:40.384Z,102.45
2023-03-03T05:26:08.482Z,61.53
2023-03-03T05:28:38.108Z,104.05
2023-03-03T05:31:06.477Z,137.80
2023-03-03T05:33:34.725Z,134.02
2023-03-03T05:36:03.412Z,64.20
2023-03-03T05:38:31.405Z,146.77
2023-03-03T05:40:59.684Z,166.98
2023-03-03T05:43:28.418Z,82.05
2023-03-03T05:46:00.961Z,98.40
2023-03-03T05:48:29.334Z,77.20
2023-03-03T05:50:59.783Z,67.15
2023-03-03T05:53:28.158Z,79.70
2023-03-03T05:55:56.921Z,77.03
2023-03-03T05:58:25.683Z,67.53
2023-03-03T06:00:53.874Z,53.00
2023-03-03T06:03:23.517Z,87.22
2023-03-03T06:05:51.933Z,80.30
2023-03-03T06:08:20.283Z,103.20
2023-03-03T06:10:48.837Z,55.60
2023-03-03T06:13:17.707Z,87.90
2023-03-03T06:15:46.090Z,91.68
2023-03-03T06:18:14.401Z,88.68
2023-03-03T06:20:44.202Z,62.40
2023-03-03T06:23:12.930Z,65.30
2023-03-03T06:25:40.923Z,96.97
2023-03-03T06:28:08.941Z,54.63
2023-03-03T06:30:37.041Z,54.22
2023-03-03T06:33:05.211Z,34.38
2023-03-03T06:35:33.257Z,70.15
2023-03-03T06:38:02.803Z,53.53
2023-03-03T06:40:32.085Z,52.38
2023-03-03T06:43:02.439Z,55.60
2023-03-03T06:45:30.672Z,56.53
2023-03-03T06:47:58.828Z,54.80
2023-03-03T06:50:26.940Z,54.90
2023-03-03T06:53:06.577Z,54.58
2023-03-03T06:55:35.213Z,42.28
2023-03-03T06:58:04.378Z,51.88
2023-03-03T07:00:32.664Z,47.85
2023-03-03T07:03:02.824Z,82.10
2023-03-03T07:05:31.167Z,36.53
2023-03-03T07:07:59.519Z,47.83
2023-03-03T07:10:31.462Z,39.30
2023-03-03T07:13:12.133Z,119.63
2023-03-03T07:15:40.212Z,56.30
2023-03-03T07:18:26.767Z,63.65
2023-03-03T07:20:55.036Z,73.30
2023-03-03T07:23:26.526Z,60.85
2023-03-03T07:25:56.571Z,53.72
2023-03-03T07:28:27.192Z,48.67
2023-03-03T07:30:57.360Z,49.33
2023-03-03T07:33:28.354Z,44.20
2023-03-03T07:35:58.504Z,49.30
2023-03-03T07:38:37.196Z,41.40
2023-03-03T07:41:13.698Z,43.08
2023-03-03T07:43:49.585Z,43.80
2023-03-03T07:46:29.191Z,45.10
2023-03-03T07:48:58.750Z,73.63
2023-03-03T07:51:29.306Z,40.17
2023-03-03T07:54:18.962Z,36.92
2023-03-03T07:56:49.034Z,54.00
2023-03-03T07:59:22.374Z,54.40
2023-03-03T08:02:29.584Z,41.42
2023-03-03T08:04:57.732Z,45.33
2023-03-03T08:07:26.156Z,49.55
2023-03-03T08:10:00.211Z,47.83
2023-03-03T08:12:43.063Z,42.38
2023-03-03T08:15:26.288Z,46.22
2023-03-03T08:17:57.120Z,40.30
2023-03-03T08:20:45.056Z,44.30
2023-03-03T08:23:14.294Z,39.78
2023-03-03T08:25:43.803Z,44.20
2023-03-03T08:28:14.168Z,44.22
2023-03-03T08:30:43.650Z,40.08
2023-03-03T08:33:12.151Z,42.42
2023-03-03T08:35:40.424Z,52.63
2023-03-03T08:38:09.495Z,42.67
2023-03-03T08:40:38.228Z,53.97
2023-03-03T08:43:06.838Z,42.55
2023-03-03T08:45:37.276Z,39.45
2023-03-03T08:48:06.390Z,37.45
2023-03-03T08:50:34.809Z,49.15
2023-03-03T08:53:02.992Z,43.63
2023-03-03T08:55:31.803Z,42.88
2023-03-03T08:58:00.284Z,37.95
2023-03-03T09:00:28.965Z,47.40
2023-03-03T09:02:58.881Z,41.92
2023-03-03T09:05:27.885Z,30.10
2023-03-03T09:07:56.690Z,32.13
2023-03-03T09:10:29.492Z,31.67
2023-03-03T09:13:01.274Z,32.95
2023-03-03T09:15:31.007Z,35.28
2023-03-03T09:18:06.956Z,40.15
2023-03-03T09:20:41.149Z,36.33
2023-03-03T09:23:36.643Z,36.20
2023-03-03T09:26:27.018Z,30.92
2023-03-03T09:28:57.673Z,44.58
2023-03-03T09:31:28.832Z,39.80
2023-03-03T09:33:59.505Z,40.15
2023-03-03T09:36:30.455Z,40.20
2023-03-03T09:38:59.714Z,33.38
2023-03-03T09:41:48.533Z,44.13
2023-03-03T09:44:31.773Z,30.83
2023-03-03T09:47:18.096Z,34.35
2023-03-03T09:50:01.429Z,29.08
2023-03-03T09:52:42.507Z,34.33
2023-03-03T09:55:29.620Z,36.20
2023-03-03T09:58:12.849Z,27.42
2023-03-03T10:00:48.937Z,27.83
2023-03-03T10:03:54.252Z,25.90
2023-03-03T10:06:30.354Z,25.75
2023-03-03T10:09:33.297Z,27.60
2023-03-03T10:12:09.207Z,29.48
2023-03-03T10:14:51.880Z,29.73
2023-03-03T10:17:30.792Z,33.42
2023-03-03T10:20:13.240Z,34.53
2023-03-03T10:22:51.832Z,31.40
2023-03-03T10:25:30.686Z,25.98
2023-03-03T10:28:30.504Z,26.92
2023-03-03T10:31:15.503Z,23.80
2023-03-03T10:33:54.560Z,21.80
2023-03-03T10:36:35.831Z,24.10
2023-03-03T10:39:34.979Z,22.23
2023-03-03T10:42:16.816Z,24.70
2023-03-03T10:45:06.693Z,30.58
2023-03-03T10:47:51.774Z,29.08
2023-03-03T10:50:25.187Z,22.10
2023-03-03T10:52:58.965Z,23.45
2023-03-03T10:55:39.543Z,25.73
2023-03-03T10:58:22.618Z,31.27
2023-03-03T11:00:58.452Z,26.98
2023-03-03T11:04:07.708Z,25.05
2023-03-03T11:06:46.659Z,22.23
2023-03-03T11:09:39.210Z,22.27
2023-03-03T11:12:17.478Z,24.42
2023-03-03T11:14:53.047Z,28.67
2023-03-03T11:17:27.890Z,19.02
2023-03-03T11:20:05.071Z,26.75
2023-03-03T11:22:40.828Z,18.25
2023-03-03T11:25:23.757Z,21.60
2023-03-03T11:28:10.787Z,23.70
2023-03-03T11:31:01.453Z,31.85
2023-03-03T11:33:37.769Z,46.67
2023-03-03T11:36:13.461Z,19.00
2023-03-03T11:38:49.600Z,22.75
2023-03-03T11:41:34.271Z,25.52
2023-03-03T11:44:12.301Z,26.15
2023-03-03T11:46:47.820Z,25.40
2023-03-03T11:49:23.599Z,28.73
2023-03-03T11:52:01.790Z,33.05
2023-03-03T11:54:35.461Z,25.10
2023-03-03T11:57:19.946Z,35.60
2023-03-03T12:00:08.500Z,22.35
2023-03-03T12:03:15.588Z,21.63
2023-03-03T12:05:56.375Z,25.80
2023-03-03T12:08:44.055Z,19.90
2023-03-03T12:11:23.186Z,24.42
2023-03-03T12:13:57.844Z,20.38
2023-03-03T12:16:40.757Z,23.85
2023-03-03T12:19:20.636Z,18.70
2023-03-03T12:22:06.457Z,23.77
2023-03-03T12:24:46.733Z,20.45
2023-03-03T12:27:24.043Z,24.52
2023-03-03T12:30:06.670Z,18.20
2023-03-03T12:32:57.034Z,25.85
2023-03-03T12:35:36.562Z,21.52
2023-03-03T12:38:14.819Z,18.10
2023-03-03T12:40:53.865Z,21.60
2023-03-03T12:43:36.739Z,16.48
2023-03-03T12:46:12.436Z,19.23
2023-03-03T12:48:43.687Z,23.33
2023-03-03T12:51:23.071Z,22.02
2023-03-03T12:54:12.360Z,16.17
2023-03-03T12:56:45.919Z,21.17
2023-03-03T12:59:20.848Z,24.33
2023-03-03T13:02:03.864Z,19.25
2023-03-03T13:04:38.787Z,16.52
2023-03-03T13:07:16.271Z,16.40
2023-03-03T13:10:04.068Z,17.52
2023-03-03T13:12:41.920Z,17.60
2023-03-03T13:15:24.847Z,16.65
2023-03-03T13:18:04.782Z,24.80
2023-03-03T13:20:43.831Z,20.00
2023-03-03T13:23:20.452Z,18.85
2023-03-03T13:25:56.750Z,21.13
2023-03-03T13:28:32.773Z,17.50
2023-03-03T13:31:08.662Z,17.92
2023-03-03T13:33:37.922Z,19.73
2023-03-03T13:36:10.503Z,16.75
2023-03-03T13:38:43.844Z,17.52
2023-03-03T13:41:22.398Z,23.42
2023-03-03T13:43:56.196Z,17.50
2023-03-03T13:46:38.971Z,13.48
2023-03-03T13:49:37.065Z,13.95
2023-03-03T13:52:09.192Z,21.38
2023-03-03T13:54:49.384Z,18.02
2023-03-03T13:57:31.593Z,18.02
2023-03-03T14:00:13.679Z,20.88
2023-03-03T14:02:55.660Z,15.38
2023-03-03T14:05:30.176Z,14.90
2023-03-03T14:08:01.147Z,17.00
2023-03-03T14:10:33.389Z,20.90
2023-03-03T14:13:07.616Z,19.00
2023-03-03T14:15:40.020Z,17.48
2023-03-03T14:18:23.120Z,21.38
2023-03-03T14:20:54.084Z,18.38
2023-03-03T14:23:28.841Z,20.55
2023-03-03T14:26:08.446Z,21.10
2023-03-03T14:28:44.228Z,18.05
2023-03-03T14:31:23.463Z,16.25
2023-03-03T14:34:03.263Z,19.30
2023-03-03T14:36:34.183Z,17.85
2023-03-03T14:39:02.682Z,23.20
2023-03-03T14:41:41.738Z,20.08
2023-03-03T14:44:29.757Z,21.67
2023-03-03T14:47:18.493Z,25.35
2023-03-03T14:49:46.941Z,24.98
2023-03-03T14:52:26.054Z,21.58
2023-03-03T14:54:56.435Z,24.10
2023-03-03T14:57:46.518Z,20.42
2023-03-03T15:00:36.343Z,22.50
2023-03-03T15:03:23.316Z,23.30
2023-03-03T15:05:52.812Z,26.73
2023-03-03T15:08:31.961Z,23.73
2023-03-03T15:11:15.015Z,20.45
2023-03-03T15:13:43.364Z,22.25
2023-03-03T15:16:19.598Z,21.60
2023-03-03T15:19:19.755Z,20.25
2023-03-03T15:22:00.881Z,18.08
2023-03-03T15:24:39.494Z,20.50
2023-03-03T15:27:15.552Z,30.38
2023-03-03T15:29:57.028Z,27.77
2023-03-03T15:32:31.312Z,28.05
2023-03-03T15:35:13.913Z,23.17
2023-03-03T15:37:50.810Z,19.02
2023-03-03T15:40:28.549Z,12.35
2023-03-03T15:43:05.773Z,19.60
2023-03-03T15:45:40.630Z,19.63
2023-03-03T15:48:35.633Z,13.38
2023-03-03T15:51:10.471Z,15.00
2023-03-03T15:54:02.373Z,17.13
2023-03-03T15:56:38.774Z,14.18
2023-03-03T15:59:42.347Z,18.67
2023-03-03T16:02:17.954Z,16.25
2023-03-03T16:04:56.148Z,20.50
2023-03-03T16:07:37.337Z,16.17
2023-03-03T16:10:20.912Z,23.60
2023-03-03T16:13:00.409Z,18.13
2023-03-03T16:15:46.102Z,13.60
2023-03-03T16:18:24.308Z,15.80
2023-03-03T16:21:04.977Z,16.23
2023-03-03T16:23:47.427Z,14.10
2023-03-03T16:26:28.711Z,19.48
2023-03-03T16:29:09.624Z,17.90
2023-03-03T16:31:43.028Z,15.25
2023-03-03T16:34:18.610Z,18.38
2023-03-03T16:36:58.468Z,16.23
2023-03-03T16:39:37.169Z,18.17
2023-03-03T16:42:13.813Z,20.75
2023-03-03T16:44:51.042Z,16.10
2023-03-03T16:47:33.704Z,18.65
2023-03-03T16:50:15.851Z,22.50
2023-03-03T16:52:49.820Z,21.73
2023-03-03T16:55:22.944Z,14.32
2023-03-03T16:58:04.920Z,27.05
2023-03-03T17:00:40.038Z,25.65
2023-03-03T17:03:25.324Z,24.13
2023-03-03T17:05:58.063Z,28.00
2023-03-03T17:08:57.924Z,26.02
2023-03-03T17:11:35.083Z,24.88
2023-03-03T17:14:28.061Z,25.98
2023-03-03T17:17:01.509Z,27.75
2023-03-03T17:19:44.052Z,30.48
2023-03-03T17:22:19.351Z,28.70
2023-03-03T17:25:04.042Z,24.90
2023-03-03T17:27:47.510Z,20.77
2023-03-03T17:30:22.407Z,26.88
2023-03-03T17:33:23.219Z,32.53
2023-03-03T17:36:05.749Z,24.90
2023-03-03T17:38:49.322Z,29.15
2023-03-03T17:41:26.888Z,23.23
2023-03-03T17:44:03.397Z,34.70
2023-03-03T17:46:37.125Z,36.75
2023-03-03T17:49:30.094Z,34.20
2023-03-03T17:52:13.268Z,26.48
2023-03-03T17:55:10.637Z,25.48
2023-03-03T17:57:53.598Z,26.65
2023-03-03T18:00:37.137Z,22.40
2023-03-03T18:03:40.828Z,35.20
2023-03-03T18:06:38.072Z,23.98
2023-03-03T18:09:22.318Z,28.77
2023-03-03T18:12:05.290Z,28.38
2023-03-03T18:15:04.263Z,31.10
2023-03-03T18:17:37.615Z,29.35
2023-03-03T18:20:36.451Z,30.90
2023-03-03T18:23:43.605Z,25.38
2023-03-03T18:26:34.540Z,26.58
2023-03-03T18:29:22.401Z,34.55
2023-03-03T18:32:04.606Z,28.40
2023-03-03T18:34:38.966Z,36.78
2023-03-03T18:37:12.804Z,39.00
2023-03-03T18:39:46.727Z,35.67
2023-03-03T18:42:37.709Z,34.63
2023-03-03T18:45:51.483Z,37.45
2023-03-03T18:48:49.414Z,43.80
2023-03-03T18:52:14.052Z,29.05
2023-03-03T18:54:42.251Z,33.45
2023-03-03T18:57:20.628Z,41.80
2023-03-03T19:00:17.306Z,33.75
2023-03-03T19:02:55.308Z,28.25
2023-03-03T19:05:29.021Z,51.13
2023-03-03T19:08:02.908Z,50.92
2023-03-03T19:10:50.968Z,33.30
2023-03-03T19:13:44.692Z,33.85
2023-03-03T19:16:30.633Z,34.97
2023-03-03T19:19:02.188Z,47.20
2023-03-03T19:21:34.474Z,30.17
2023-03-03T19:24:04.558Z,35.33
2023-03-03T19:26:51.741Z,30.90
2023-03-03T19:29:34.758Z,43.63
2023-03-03T19:32:19.933Z,29.40
2023-03-03T19:34:56.001Z,33.83
2023-03-03T19:37:40.565Z,30.52
2023-03-03T19:40:21.045Z,42.83
2023-03-03T19:43:00.593Z,37.97
2023-03-03T19:45:49.430Z,46.40
2023-03-03T19:48:26.979Z,48.53
2023-03-03T19:51:03.264Z,39.97
2023-03-03T19:53:40.383Z,42.40
2023-03-03T19:56:29.841Z,45.47
2023-03-03T19:59:09.607Z,47.03
2023-03-03T20:01:49.550Z,44.33
2023-03-03T20:04:38.337Z,55.00
2023-03-03T20:07:22.786Z,42.95
2023-03-03T20:10:01.331Z,50.95
2023-03-03T20:12:54.490Z,49.63
2023-03-03T20:15:29.526Z,48.35
2023-03-03T20:18:22.332Z,63.75
2023-03-03T20:21:00.938Z,51.33
2023-03-03T20:23:36.819Z,47.63
2023-03-03T20:26:15.484Z,52.85
2023-03-03T20:29:22.795Z,39.28
2023-03-03T20:31:57.946Z,46.72
2023-03-03T20:34:37.652Z,39.10
2023-03-03T20:37:10.039Z,43.83
2023-03-03T20:39:58.956Z,43.15
2023-03-03T20:42:42.265Z,38.88
2023-03-03T20:45:23.366Z,41.85
2023-03-03T20:48:01.424Z,49.83
2023-03-03T20:50:37.584Z,45.17
2023-03-03T20:53:18.182Z,45.03
2023-03-03T20:55:56.104Z,61.60
2023-03-03T20:58:35.419Z,47.58
2023-03-03T21:01:07.946Z,54.53
2023-03-03T21:03:38.502Z,58.13
2023-03-03T21:06:09.413Z,48.20
2023-03-03T21:08:53.331Z,67.50
2023-03-03T21:11:24.082Z,54.55
2023-03-03T21:13:54.952Z,57.00
2023-03-03T21:16:36.038Z,62.75
2023-03-03T21:19:06.431Z,58.70
2023-03-03T21:21:36.122Z,54.97
2023-03-03T21:24:04.850Z,49.42
2023-03-03T21:26:54.470Z,59.25
2023-03-03T21:29:27.822Z,65.32
2023-03-03T21:31:57.809Z,62.85
2023-03-03T21:34:30.090Z,49.83
2023-03-03T21:37:00.216Z,70.65
2023-03-03T21:39:31.109Z,60.25
2023-03-03T21:42:03.009Z,68.43
2023-03-03T21:44:44.281Z,61.42
2023-03-03T21:47:15.498Z,64.15
2023-03-03T21:49:44.559Z,71.80
2023-03-03T21:52:16.611Z,75.43
2023-03-03T21:54:45.291Z,70.25
2023-03-03T21:57:14.169Z,70.47
2023-03-03T21:59:43.782Z,74.57
2023-03-03T22:02:11.915Z,74.57
2023-03-03T22:04:41.249Z,59.45
2023-03-03T22:07:09.886Z,75.13
2023-03-03T22:09:39.341Z,61.75
2023-03-03T22:12:08.628Z,55.53
2023-03-03T22:14:36.873Z,64.97
2023-03-03T22:17:06.296Z,66.75
2023-03-03T22:19:34.909Z,71.13
2023-03-03T22:22:03.349Z,92.63
2023-03-03T22:24:32.404Z,64.82
2023-03-03T22:27:01.030Z,53.80
2023-03-03T22:29:29.046Z,48.47
2023-03-03T22:31:57.300Z,57.65
2023-03-03T22:34:27.225Z,67.10
2023-03-03T22:36:55.468Z,67.82
2023-03-03T22:39:23.648Z,67.28
2023-03-03T22:41:51.883Z,68.30
2023-03-03T22:44:20.378Z,79.00
2023-03-03T22:46:48.653Z,52.75
2023-03-03T22:49:17.072Z,65.07
2023-03-03T22:51:46.566Z,63.17
2023-03-03T22:54:14.681Z,70.97
2023-03-03T22:56:42.854Z,57.22
2023-03-03T22:59:11.137Z,80.95
2023-03-03T23:01:39.334Z,67.80
2023-03-03T23:04:07.661Z,78.80
2023-03-03T23:06:36.291Z,66.60
2023-03-03T23:09:06.070Z,78.00
2023-03-03T23:11:35.002Z,70.07
2023-03-03T23:14:03.174Z,85.22
2023-03-03T23:16:31.360Z,85.53
2023-03-03T23:18:59.502Z,83.72
2023-03-03T23:21:28.041Z,70.82
2023-03-03T23:23:56.473Z,87.95
2023-03-03T23:26:26.223Z,65.40
2023-03-03T23:28:54.296Z,72.63
2023-03-03T23:31:22.385Z,89.85
2023-03-03T23:33:50.385Z,69.60
2023-03-03T23:36:19.234Z,89.88
2023-03-03T23:38:47.532Z,69.82
2023-03-03T23:41:15.881Z,87.68
2023-03-03T23:43:45.404Z,86.40
2023-03-03T23:46:13.421Z,74.13
2023-03-03T23:48:41.825Z,83.93
2023-03-03T23:51:09.887Z,86.47
2023-03-03T23:53:37.932Z,87.05
2023-03-03T23:56:06.813Z,86.43
2023-03-03T23:58:35.300Z,82.97
